sensor_id;sensor_type;location;lat;lon;timestamp;P1;durP1;ratioP1;P2;durP2;ratioP2
16832;SDS011;8533;48.426;10.868;2023-11-19T00:00:18;2.83;;;2.07;;
16832;SDS011;8533;48.426;10.868;2023-11-19T00:02:43;2.67;;;2.30;;
16832;SDS011;8533;48.426;10.868;2023-11-19T00:05:09;2.73;;;2.20;;
16832;SDS011;8533;48.426;10.868;2023-11-19T00:07:36;3.27;;;2.23;;
16832;SDS011;8533;48.426;10.868;2023-11-19T00:10:09;3.03;;;2.17;;
16832;SDS011;8533;48.426;10.868;2023-11-19T00:12:36;2.83;;;2.17;;
16832;SDS011;8533;48.426;10.868;2023-11-19T00:15:18;3.30;;;2.43;;
16832;SDS011;8533;48.426;10.868;2023-11-19T00:17:47;3.70;;;2.40;;
16832;SDS011;8533;48.426;10.868;2023-11-19T00:20:13;3.40;;;2.33;;
16832;SDS011;8533;48.426;10.868;2023-11-19T00:22:40;3.23;;;2.23;;
16832;SDS011;8533;48.426;10.868;2023-11-19T00:25:06;3.10;;;2.47;;
16832;SDS011;8533;48.426;10.868;2023-11-19T00:27:32;2.60;;;2.23;;
16832;SDS011;8533;48.426;10.868;2023-11-19T00:29:57;2.60;;;2.20;;
16832;SDS011;8533;48.426;10.868;2023-11-19T00:32:23;3.23;;;2.50;;
16832;SDS011;8533;48.426;10.868;2023-11-19T00:34:48;3.63;;;2.70;;
16832;SDS011;8533;48.426;10.868;2023-11-19T00:37:14;3.33;;;2.43;;
16832;SDS011;8533;48.426;10.868;2023-11-19T00:39:42;3.23;;;2.57;;
16832;SDS011;8533;48.426;10.868;2023-11-19T00:42:11;3.63;;;2.50;;
16832;SDS011;8533;48.426;10.868;2023-11-19T00:44:36;3.13;;;2.30;;
16832;SDS011;8533;48.426;10.868;2023-11-19T00:47:02;2.80;;;2.40;;
16832;SDS011;8533;48.426;10.868;2023-11-19T00:49:27;4.27;;;2.30;;
16832;SDS011;8533;48.426;10.868;2023-11-19T00:51:53;3.50;;;2.03;;
16832;SDS011;8533;48.426;10.868;2023-11-19T00:54:18;3.23;;;2.53;;
16832;SDS011;8533;48.426;10.868;2023-11-19T00:56:44;3.73;;;3.07;;
16832;SDS011;8533;48.426;10.868;2023-11-19T00:59:09;3.43;;;2.40;;
16832;SDS011;8533;48.426;10.868;2023-11-19T01:01:35;2.00;;;1.90;;
16832;SDS011;8533;48.426;10.868;2023-11-19T01:04:00;2.60;;;1.97;;
16832;SDS011;8533;48.426;10.868;2023-11-19T01:06:26;3.63;;;2.30;;
16832;SDS011;8533;48.426;10.868;2023-11-19T01:08:55;2.73;;;2.30;;
16832;SDS011;8533;48.426;10.868;2023-11-19T01:11:22;2.80;;;2.17;;
16832;SDS011;8533;48.426;10.868;2023-11-19T01:13:50;4.20;;;2.20;;
16832;SDS011;8533;48.426;10.868;2023-11-19T01:16:16;3.33;;;2.20;;
16832;SDS011;8533;48.426;10.868;2023-11-19T01:18:43;3.03;;;2.17;;
16832;SDS011;8533;48.426;10.868;2023-11-19T01:21:09;2.10;;;1.90;;
16832;SDS011;8533;48.426;10.868;2023-11-19T01:23:35;3.37;;;2.43;;
16832;SDS011;8533;48.426;10.868;2023-11-19T01:26:02;2.30;;;1.87;;
16832;SDS011;8533;48.426;10.868;2023-11-19T01:28:27;3.13;;;2.43;;
16832;SDS011;8533;48.426;10.868;2023-11-19T01:30:53;2.60;;;2.17;;
16832;SDS011;8533;48.426;10.868;2023-11-19T01:33:18;2.27;;;1.97;;
16832;SDS011;8533;48.426;10.868;2023-11-19T01:35:44;3.83;;;2.13;;
16832;SDS011;8533;48.426;10.868;2023-11-19T01:38:09;3.77;;;2.17;;
16832;SDS011;8533;48.426;10.868;2023-11-19T01:40:35;3.07;;;2.20;;
16832;SDS011;8533;48.426;10.868;2023-11-19T01:43:01;3.03;;;2.30;;
16832;SDS011;8533;48.426;10.868;2023-11-19T01:45:28;2.83;;;2.20;;
16832;SDS011;8533;48.426;10.868;2023-11-19T01:47:55;2.97;;;1.77;;
16832;SDS011;8533;48.426;10.868;2023-11-19T01:50:22;3.40;;;2.10;;
16832;SDS011;8533;48.426;10.868;2023-11-19T01:52:50;2.20;;;1.80;;
16832;SDS011;8533;48.426;10.868;2023-11-19T01:55:17;3.37;;;2.43;;
16832;SDS011;8533;48.426;10.868;2023-11-19T01:57:44;3.13;;;2.20;;
16832;SDS011;8533;48.426;10.868;2023-11-19T02:00:11;3.63;;;2.10;;
16832;SDS011;8533;48.426;10.868;2023-11-19T02:02:37;2.40;;;1.97;;
16832;SDS011;8533;48.426;10.868;2023-11-19T02:05:04;2.43;;;2.00;;
16832;SDS011;8533;48.426;10.868;2023-11-19T02:07:30;2.27;;;2.00;;
16832;SDS011;8533;48.426;10.868;2023-11-19T02:09:56;2.50;;;2.00;;
16832;SDS011;8533;48.426;10.868;2023-11-19T02:12:24;3.17;;;2.60;;
16832;SDS011;8533;48.426;10.868;2023-11-19T02:14:49;2.17;;;1.90;;
16832;SDS011;8533;48.426;10.868;2023-11-19T02:17:30;3.60;;;2.17;;
16832;SDS011;8533;48.426;10.868;2023-11-19T02:19:56;2.40;;;2.10;;
16832;SDS011;8533;48.426;10.868;2023-11-19T02:22:22;2.90;;;2.50;;
16832;SDS011;8533;48.426;10.868;2023-11-19T02:24:47;2.40;;;2.10;;
16832;SDS011;8533;48.426;10.868;2023-11-19T02:27:20;2.67;;;2.13;;
16832;SDS011;8533;48.426;10.868;2023-11-19T02:30:08;5.10;;;2.23;;
16832;SDS011;8533;48.426;10.868;2023-11-19T02:32:34;3.77;;;2.40;;
16832;SDS011;8533;48.426;10.868;2023-11-19T02:35:00;2.50;;;2.10;;
16832;SDS011;8533;48.426;10.868;2023-11-19T02:37:26;3.47;;;2.43;;
16832;SDS011;8533;48.426;10.868;2023-11-19T02:39:53;2.07;;;1.90;;
16832;SDS011;8533;48.426;10.868;2023-11-19T02:42:18;3.70;;;2.30;;
16832;SDS011;8533;48.426;10.868;2023-11-19T02:44:44;2.30;;;2.03;;
16832;SDS011;8533;48.426;10.868;2023-11-19T02:47:10;3.50;;;2.53;;
16832;SDS011;8533;48.426;10.868;2023-11-19T02:49:36;3.00;;;2.27;;
16832;SDS011;8533;48.426;10.868;2023-11-19T02:52:02;2.73;;;2.37;;
16832;SDS011;8533;48.426;10.868;2023-11-19T02:54:30;2.30;;;2.10;;
16832;SDS011;8533;48.426;10.868;2023-11-19T02:56:59;3.40;;;2.43;;
16832;SDS011;8533;48.426;10.868;2023-11-19T02:59:26;2.33;;;1.93;;
16832;SDS011;8533;48.426;10.868;2023-11-19T03:01:53;3.73;;;2.30;;
16832;SDS011;8533;48.426;10.868;2023-11-19T03:04:19;3.30;;;2.33;;
16832;SDS011;8533;48.426;10.868;2023-11-19T03:06:45;2.57;;;2.10;;
16832;SDS011;8533;48.426;10.868;2023-11-19T03:09:11;4.03;;;2.70;;
16832;SDS011;8533;48.426;10.868;2023-11-19T03:11:37;2.77;;;2.20;;
16832;SDS011;8533;48.426;10.868;2023-11-19T03:14:02;3.13;;;2.20;;
16832;SDS011;8533;48.426;10.868;2023-11-19T03:16:31;2.63;;;2.20;;
16832;SDS011;8533;48.426;10.868;2023-11-19T03:18:57;3.27;;;2.20;;
16832;SDS011;8533;48.426;10.868;2023-11-19T03:21:29;2.50;;;2.03;;
16832;SDS011;8533;48.426;10.868;2023-11-19T03:23:54;1.80;;;1.70;;
16832;SDS011;8533;48.426;10.868;2023-11-19T03:26:20;2.30;;;2.10;;
16832;SDS011;8533;48.426;10.868;2023-11-19T03:28:45;2.83;;;2.00;;
16832;SDS011;8533;48.426;10.868;2023-11-19T03:31:11;2.33;;;2.00;;
16832;SDS011;8533;48.426;10.868;2023-11-19T03:33:36;2.63;;;2.07;;
16832;SDS011;8533;48.426;10.868;2023-11-19T03:36:02;2.27;;;1.87;;
16832;SDS011;8533;48.426;10.868;2023-11-19T03:38:28;2.90;;;2.23;;
16832;SDS011;8533;48.426;10.868;2023-11-19T03:40:53;2.60;;;2.10;;
16832;SDS011;8533;48.426;10.868;2023-11-19T03:43:18;3.53;;;2.13;;
16832;SDS011;8533;48.426;10.868;2023-11-19T03:45:46;1.80;;;1.70;;
16832;SDS011;8533;48.426;10.868;2023-11-19T03:48:11;2.17;;;1.63;;
16832;SDS011;8533;48.426;10.868;2023-11-19T03:50:37;2.50;;;2.00;;
16832;SDS011;8533;48.426;10.868;2023-11-19T03:53:02;1.83;;;1.70;;
16832;SDS011;8533;48.426;10.868;2023-11-19T03:55:29;2.00;;;1.60;;
16832;SDS011;8533;48.426;10.868;2023-11-19T03:57:54;1.50;;;1.40;;
16832;SDS011;8533;48.426;10.868;2023-11-19T04:00:20;1.93;;;1.53;;
16832;SDS011;8533;48.426;10.868;2023-11-19T04:02:46;2.47;;;1.77;;
16832;SDS011;8533;48.426;10.868;2023-11-19T04:05:12;1.77;;;1.67;;
16832;SDS011;8533;48.426;10.868;2023-11-19T04:07:37;2.00;;;1.80;;
16832;SDS011;8533;48.426;10.868;2023-11-19T04:10:03;2.30;;;1.73;;
16832;SDS011;8533;48.426;10.868;2023-11-19T04:12:29;2.33;;;1.83;;
16832;SDS011;8533;48.426;10.868;2023-11-19T04:14:54;2.10;;;1.73;;
16832;SDS011;8533;48.426;10.868;2023-11-19T04:17:19;1.93;;;1.60;;
16832;SDS011;8533;48.426;10.868;2023-11-19T04:19:44;2.13;;;1.60;;
16832;SDS011;8533;48.426;10.868;2023-11-19T04:22:10;1.60;;;1.50;;
16832;SDS011;8533;48.426;10.868;2023-11-19T04:24:35;1.80;;;1.60;;
16832;SDS011;8533;48.426;10.868;2023-11-19T04:27:01;2.30;;;1.80;;
16832;SDS011;8533;48.426;10.868;2023-11-19T04:29:26;1.93;;;1.50;;
16832;SDS011;8533;48.426;10.868;2023-11-19T04:31:52;1.53;;;1.43;;
16832;SDS011;8533;48.426;10.868;2023-11-19T04:34:17;2.43;;;1.60;;
16832;SDS011;8533;48.426;10.868;2023-11-19T04:36:42;1.87;;;1.63;;
16832;SDS011;8533;48.426;10.868;2023-11-19T04:39:08;2.07;;;1.60;;
16832;SDS011;8533;48.426;10.868;2023-11-19T04:41:45;2.33;;;1.80;;
16832;SDS011;8533;48.426;10.868;2023-11-19T04:44:15;3.67;;;2.07;;
16832;SDS011;8533;48.426;10.868;2023-11-19T04:46:41;2.10;;;1.57;;
16832;SDS011;8533;48.426;10.868;2023-11-19T04:49:08;2.27;;;1.57;;
16832;SDS011;8533;48.426;10.868;2023-11-19T04:51:39;1.73;;;1.60;;
16832;SDS011;8533;48.426;10.868;2023-11-19T04:54:11;2.13;;;1.90;;
16832;SDS011;8533;48.426;10.868;2023-11-19T04:56:36;2.60;;;1.83;;
16832;SDS011;8533;48.426;10.868;2023-11-19T04:59:02;2.63;;;1.80;;
16832;SDS011;8533;48.426;10.868;2023-11-19T05:01:28;1.60;;;1.50;;
16832;SDS011;8533;48.426;10.868;2023-11-19T05:03:53;1.67;;;1.57;;
16832;SDS011;8533;48.426;10.868;2023-11-19T05:06:18;1.80;;;1.70;;
16832;SDS011;8533;48.426;10.868;2023-11-19T05:08:44;2.67;;;2.10;;
16832;SDS011;8533;48.426;10.868;2023-11-19T05:11:09;2.37;;;2.00;;
16832;SDS011;8533;48.426;10.868;2023-11-19T05:13:37;3.03;;;1.90;;
16832;SDS011;8533;48.426;10.868;2023-11-19T05:16:03;3.23;;;2.10;;
16832;SDS011;8533;48.426;10.868;2023-11-19T05:18:28;2.20;;;1.73;;
16832;SDS011;8533;48.426;10.868;2023-11-19T05:20:54;2.00;;;1.80;;
16832;SDS011;8533;48.426;10.868;2023-11-19T05:23:19;4.90;;;2.00;;
16832;SDS011;8533;48.426;10.868;2023-11-19T05:25:45;3.20;;;2.30;;
16832;SDS011;8533;48.426;10.868;2023-11-19T05:28:10;3.13;;;2.20;;
16832;SDS011;8533;48.426;10.868;2023-11-19T05:30:36;2.80;;;2.30;;
16832;SDS011;8533;48.426;10.868;2023-11-19T05:33:01;2.33;;;2.00;;
16832;SDS011;8533;48.426;10.868;2023-11-19T05:35:27;2.13;;;1.93;;
16832;SDS011;8533;48.426;10.868;2023-11-19T05:37:52;3.10;;;2.33;;
16832;SDS011;8533;48.426;10.868;2023-11-19T05:40:18;2.50;;;2.30;;
16832;SDS011;8533;48.426;10.868;2023-11-19T05:42:45;3.30;;;2.50;;
16832;SDS011;8533;48.426;10.868;2023-11-19T05:45:11;2.60;;;2.17;;
16832;SDS011;8533;48.426;10.868;2023-11-19T05:47:37;3.10;;;2.47;;
16832;SDS011;8533;48.426;10.868;2023-11-19T05:50:02;2.70;;;2.40;;
16832;SDS011;8533;48.426;10.868;2023-11-19T05:52:30;3.27;;;2.60;;
16832;SDS011;8533;48.426;10.868;2023-11-19T05:54:59;2.87;;;2.20;;
16832;SDS011;8533;48.426;10.868;2023-11-19T05:57:34;3.07;;;2.57;;
16832;SDS011;8533;48.426;10.868;2023-11-19T05:59:59;4.00;;;2.60;;
16832;SDS011;8533;48.426;10.868;2023-11-19T06:02:25;3.10;;;2.80;;
16832;SDS011;8533;48.426;10.868;2023-11-19T06:04:52;3.00;;;2.53;;
16832;SDS011;8533;48.426;10.868;2023-11-19T06:07:18;3.97;;;2.93;;
16832;SDS011;8533;48.426;10.868;2023-11-19T06:09:43;4.07;;;2.60;;
16832;SDS011;8533;48.426;10.868;2023-11-19T06:12:08;3.93;;;2.80;;
16832;SDS011;8533;48.426;10.868;2023-11-19T06:14:34;3.43;;;2.40;;
16832;SDS011;8533;48.426;10.868;2023-11-19T06:16:59;3.80;;;2.70;;
16832;SDS011;8533;48.426;10.868;2023-11-19T06:19:25;4.07;;;3.13;;
16832;SDS011;8533;48.426;10.868;2023-11-19T06:21:50;4.97;;;2.80;;
16832;SDS011;8533;48.426;10.868;2023-11-19T06:24:15;3.67;;;2.87;;
16832;SDS011;8533;48.426;10.868;2023-11-19T06:26:41;4.83;;;2.87;;
16832;SDS011;8533;48.426;10.868;2023-11-19T06:29:06;4.00;;;2.80;;
16832;SDS011;8533;48.426;10.868;2023-11-19T06:31:32;3.50;;;2.63;;
16832;SDS011;8533;48.426;10.868;2023-11-19T06:33:57;3.57;;;2.80;;
16832;SDS011;8533;48.426;10.868;2023-11-19T06:36:22;3.97;;;2.73;;
16832;SDS011;8533;48.426;10.868;2023-11-19T06:38:48;4.30;;;3.00;;
16832;SDS011;8533;48.426;10.868;2023-11-19T06:41:13;5.53;;;3.10;;
16832;SDS011;8533;48.426;10.868;2023-11-19T06:43:38;3.70;;;2.40;;
16832;SDS011;8533;48.426;10.868;2023-11-19T06:46:04;3.90;;;2.83;;
16832;SDS011;8533;48.426;10.868;2023-11-19T06:48:34;3.77;;;2.80;;
16832;SDS011;8533;48.426;10.868;2023-11-19T06:50:59;3.87;;;2.57;;
16832;SDS011;8533;48.426;10.868;2023-11-19T06:53:25;3.77;;;2.83;;
16832;SDS011;8533;48.426;10.868;2023-11-19T06:55:52;3.47;;;2.73;;
16832;SDS011;8533;48.426;10.868;2023-11-19T06:58:18;3.40;;;2.90;;
16832;SDS011;8533;48.426;10.868;2023-11-19T07:00:43;4.33;;;3.03;;
16832;SDS011;8533;48.426;10.868;2023-11-19T07:03:09;3.03;;;2.23;;
16832;SDS011;8533;48.426;10.868;2023-11-19T07:05:38;4.10;;;2.60;;
16832;SDS011;8533;48.426;10.868;2023-11-19T07:08:03;3.17;;;2.70;;
16832;SDS011;8533;48.426;10.868;2023-11-19T07:10:29;3.13;;;2.50;;
16832;SDS011;8533;48.426;10.868;2023-11-19T07:12:55;3.57;;;2.63;;
16832;SDS011;8533;48.426;10.868;2023-11-19T07:15:21;3.27;;;2.47;;
16832;SDS011;8533;48.426;10.868;2023-11-19T07:17:46;3.60;;;2.37;;
16832;SDS011;8533;48.426;10.868;2023-11-19T07:20:13;3.30;;;2.57;;
16832;SDS011;8533;48.426;10.868;2023-11-19T07:22:41;3.87;;;2.47;;
16832;SDS011;8533;48.426;10.868;2023-11-19T07:25:08;3.87;;;2.80;;
16832;SDS011;8533;48.426;10.868;2023-11-19T07:27:33;2.53;;;2.20;;
16832;SDS011;8533;48.426;10.868;2023-11-19T07:29:59;3.37;;;2.30;;
16832;SDS011;8533;48.426;10.868;2023-11-19T07:32:24;2.37;;;2.00;;
16832;SDS011;8533;48.426;10.868;2023-11-19T07:34:49;3.00;;;2.53;;
16832;SDS011;8533;48.426;10.868;2023-11-19T07:37:15;2.83;;;2.30;;
16832;SDS011;8533;48.426;10.868;2023-11-19T07:39:41;2.60;;;2.20;;
16832;SDS011;8533;48.426;10.868;2023-11-19T07:42:07;2.87;;;2.30;;
16832;SDS011;8533;48.426;10.868;2023-11-19T07:44:32;2.73;;;2.30;;
16832;SDS011;8533;48.426;10.868;2023-11-19T07:46:57;2.90;;;2.17;;
16832;SDS011;8533;48.426;10.868;2023-11-19T07:49:23;3.13;;;2.43;;
16832;SDS011;8533;48.426;10.868;2023-11-19T07:51:49;2.20;;;1.87;;
16832;SDS011;8533;48.426;10.868;2023-11-19T07:54:14;1.80;;;1.70;;
16832;SDS011;8533;48.426;10.868;2023-11-19T07:56:39;2.60;;;1.80;;
16832;SDS011;8533;48.426;10.868;2023-11-19T07:59:05;3.67;;;2.10;;
16832;SDS011;8533;48.426;10.868;2023-11-19T08:01:30;2.07;;;1.87;;
16832;SDS011;8533;48.426;10.868;2023-11-19T08:03:55;1.73;;;1.63;;
16832;SDS011;8533;48.426;10.868;2023-11-19T08:06:21;2.63;;;2.07;;
16832;SDS011;8533;48.426;10.868;2023-11-19T08:08:46;1.90;;;1.80;;
16832;SDS011;8533;48.426;10.868;2023-11-19T08:11:13;1.80;;;1.70;;
16832;SDS011;8533;48.426;10.868;2023-11-19T08:13:38;2.30;;;1.60;;
16832;SDS011;8533;48.426;10.868;2023-11-19T08:16:04;2.33;;;1.67;;
16832;SDS011;8533;48.426;10.868;2023-11-19T08:18:30;1.80;;;1.47;;
16832;SDS011;8533;48.426;10.868;2023-11-19T08:20:55;1.50;;;1.40;;
16832;SDS011;8533;48.426;10.868;2023-11-19T08:23:21;1.63;;;1.50;;
16832;SDS011;8533;48.426;10.868;2023-11-19T08:25:48;2.00;;;1.70;;
16832;SDS011;8533;48.426;10.868;2023-11-19T08:28:14;1.80;;;1.60;;
16832;SDS011;8533;48.426;10.868;2023-11-19T08:30:39;4.73;;;2.00;;
16832;SDS011;8533;48.426;10.868;2023-11-19T08:33:05;2.07;;;1.53;;
16832;SDS011;8533;48.426;10.868;2023-11-19T08:35:32;1.47;;;1.37;;
16832;SDS011;8533;48.426;10.868;2023-11-19T08:37:57;1.40;;;1.30;;
16832;SDS011;8533;48.426;10.868;2023-11-19T08:40:24;1.63;;;1.50;;
16832;SDS011;8533;48.426;10.868;2023-11-19T08:42:50;1.90;;;1.63;;
16832;SDS011;8533;48.426;10.868;2023-11-19T08:45:16;1.47;;;1.37;;
16832;SDS011;8533;48.426;10.868;2023-11-19T08:47:41;1.30;;;1.20;;
16832;SDS011;8533;48.426;10.868;2023-11-19T08:50:07;3.73;;;1.40;;
16832;SDS011;8533;48.426;10.868;2023-11-19T08:52:33;2.60;;;1.53;;
16832;SDS011;8533;48.426;10.868;2023-11-19T08:54:58;1.20;;;1.10;;
16832;SDS011;8533;48.426;10.868;2023-11-19T08:57:23;1.60;;;1.50;;
16832;SDS011;8533;48.426;10.868;2023-11-19T08:59:49;1.50;;;1.40;;
16832;SDS011;8533;48.426;10.868;2023-11-19T09:02:14;1.50;;;1.40;;
16832;SDS011;8533;48.426;10.868;2023-11-19T09:04:40;2.40;;;1.63;;
16832;SDS011;8533;48.426;10.868;2023-11-19T09:07:06;2.83;;;1.17;;
16832;SDS011;8533;48.426;10.868;2023-11-19T09:09:31;1.37;;;1.27;;
16832;SDS011;8533;48.426;10.868;2023-11-19T09:12:00;1.30;;;1.20;;
16832;SDS011;8533;48.426;10.868;2023-11-19T09:14:26;2.10;;;1.30;;
16832;SDS011;8533;48.426;10.868;2023-11-19T09:16:51;1.60;;;1.30;;
16832;SDS011;8533;48.426;10.868;2023-11-19T09:19:17;1.37;;;1.20;;
16832;SDS011;8533;48.426;10.868;2023-11-19T09:21:43;3.93;;;1.40;;
16832;SDS011;8533;48.426;10.868;2023-11-19T09:24:08;0.93;;;0.93;;
16832;SDS011;8533;48.426;10.868;2023-11-19T09:26:34;1.90;;;1.23;;
16832;SDS011;8533;48.426;10.868;2023-11-19T09:29:01;1.40;;;1.30;;
16832;SDS011;8533;48.426;10.868;2023-11-19T09:31:26;1.40;;;1.30;;
16832;SDS011;8533;48.426;10.868;2023-11-19T09:33:51;1.00;;;1.00;;
16832;SDS011;8533;48.426;10.868;2023-11-19T09:36:17;1.83;;;1.60;;
16832;SDS011;8533;48.426;10.868;2023-11-19T09:38:43;1.20;;;1.10;;
16832;SDS011;8533;48.426;10.868;2023-11-19T09:41:09;1.43;;;1.33;;
16832;SDS011;8533;48.426;10.868;2023-11-19T09:43:37;1.60;;;1.30;;
16832;SDS011;8533;48.426;10.868;2023-11-19T09:46:07;1.50;;;1.40;;
16832;SDS011;8533;48.426;10.868;2023-11-19T09:48:36;1.30;;;1.20;;
16832;SDS011;8533;48.426;10.868;2023-11-19T09:51:04;4.33;;;1.17;;
16832;SDS011;8533;48.426;10.868;2023-11-19T09:53:29;1.47;;;1.30;;
16832;SDS011;8533;48.426;10.868;2023-11-19T09:55:56;1.00;;;1.00;;
16832;SDS011;8533;48.426;10.868;2023-11-19T09:58:24;1.00;;;1.00;;
16832;SDS011;8533;48.426;10.868;2023-11-19T10:00:49;0.87;;;0.87;;
16832;SDS011;8533;48.426;10.868;2023-11-19T10:03:15;1.37;;;1.27;;
16832;SDS011;8533;48.426;10.868;2023-11-19T10:05:40;0.97;;;0.90;;
16832;SDS011;8533;48.426;10.868;2023-11-19T10:08:06;1.43;;;1.10;;
16832;SDS011;8533;48.426;10.868;2023-11-19T10:10:32;1.60;;;1.50;;
16832;SDS011;8533;48.426;10.868;2023-11-19T10:12:58;0.67;;;0.67;;
16832;SDS011;8533;48.426;10.868;2023-11-19T10:15:25;1.67;;;1.23;;
16832;SDS011;8533;48.426;10.868;2023-11-19T10:17:52;1.30;;;0.80;;
16832;SDS011;8533;48.426;10.868;2023-11-19T10:20:20;1.23;;;0.70;;
16832;SDS011;8533;48.426;10.868;2023-11-19T10:22:46;0.90;;;0.90;;
16832;SDS011;8533;48.426;10.868;2023-11-19T10:25:27;0.90;;;0.90;;
16832;SDS011;8533;48.426;10.868;2023-11-19T10:27:54;1.33;;;1.07;;
16832;SDS011;8533;48.426;10.868;2023-11-19T10:30:24;1.90;;;0.77;;
16832;SDS011;8533;48.426;10.868;2023-11-19T10:35:53;1.03;;;0.97;;
16832;SDS011;8533;48.426;10.868;2023-11-19T10:38:21;0.87;;;0.87;;
16832;SDS011;8533;48.426;10.868;2023-11-19T10:40:47;1.40;;;1.30;;
16832;SDS011;8533;48.426;10.868;2023-11-19T10:43:13;1.00;;;0.90;;
16832;SDS011;8533;48.426;10.868;2023-11-19T10:45:39;0.97;;;0.77;;
16832;SDS011;8533;48.426;10.868;2023-11-19T10:48:05;1.13;;;1.03;;
16832;SDS011;8533;48.426;10.868;2023-11-19T10:50:32;1.00;;;0.90;;
16832;SDS011;8533;48.426;10.868;2023-11-19T10:52:58;0.80;;;0.80;;
16832;SDS011;8533;48.426;10.868;2023-11-19T10:55:26;0.80;;;0.80;;
16832;SDS011;8533;48.426;10.868;2023-11-19T10:57:53;1.00;;;0.90;;
16832;SDS011;8533;48.426;10.868;2023-11-19T11:00:38;0.90;;;0.70;;
16832;SDS011;8533;48.426;10.868;2023-11-19T11:03:08;0.70;;;0.70;;
16832;SDS011;8533;48.426;10.868;2023-11-19T11:05:35;0.83;;;0.83;;
16832;SDS011;8533;48.426;10.868;2023-11-19T11:08:03;1.03;;;1.00;;
16832;SDS011;8533;48.426;10.868;2023-11-19T11:10:32;2.33;;;0.60;;
16832;SDS011;8533;48.426;10.868;2023-11-19T11:13:04;0.90;;;0.90;;
16832;SDS011;8533;48.426;10.868;2023-11-19T11:15:30;2.10;;;0.87;;
16832;SDS011;8533;48.426;10.868;2023-11-19T11:18:00;0.50;;;0.47;;
16832;SDS011;8533;48.426;10.868;2023-11-19T11:20:29;0.70;;;0.70;;
16832;SDS011;8533;48.426;10.868;2023-11-19T11:25:50;0.80;;;0.73;;
16832;SDS011;8533;48.426;10.868;2023-11-19T11:39:57;1.27;;;0.77;;
16832;SDS011;8533;48.426;10.868;2023-11-19T11:45:06;0.73;;;0.73;;
16832;SDS011;8533;48.426;10.868;2023-11-19T11:50:07;0.60;;;0.60;;
16832;SDS011;8533;48.426;10.868;2023-11-19T11:52:33;1.50;;;0.70;;
16832;SDS011;8533;48.426;10.868;2023-11-19T11:55:04;0.63;;;0.63;;
16832;SDS011;8533;48.426;10.868;2023-11-19T11:57:35;0.70;;;0.70;;
16832;SDS011;8533;48.426;10.868;2023-11-19T12:00:02;1.60;;;0.90;;
16832;SDS011;8533;48.426;10.868;2023-11-19T12:02:30;0.80;;;0.80;;
16832;SDS011;8533;48.426;10.868;2023-11-19T12:04:55;0.70;;;0.70;;
16832;SDS011;8533;48.426;10.868;2023-11-19T12:07:22;0.70;;;0.70;;
16832;SDS011;8533;48.426;10.868;2023-11-19T12:09:51;0.70;;;0.70;;
16832;SDS011;8533;48.426;10.868;2023-11-19T12:12:22;0.60;;;0.60;;
16832;SDS011;8533;48.426;10.868;2023-11-19T12:15:03;1.40;;;0.60;;
16832;SDS011;8533;48.426;10.868;2023-11-19T12:20:02;0.77;;;0.77;;
16832;SDS011;8533;48.426;10.868;2023-11-19T12:22:39;1.17;;;0.50;;
16832;SDS011;8533;48.426;10.868;2023-11-19T12:25:06;0.70;;;0.70;;
16832;SDS011;8533;48.426;10.868;2023-11-19T12:27:34;0.80;;;0.60;;
16832;SDS011;8533;48.426;10.868;2023-11-19T12:30:03;1.00;;;0.90;;
16832;SDS011;8533;48.426;10.868;2023-11-19T12:32:37;0.87;;;0.70;;
16832;SDS011;8533;48.426;10.868;2023-11-19T12:35:09;0.70;;;0.70;;
16832;SDS011;8533;48.426;10.868;2023-11-19T12:37:39;0.70;;;0.70;;
16832;SDS011;8533;48.426;10.868;2023-11-19T12:40:15;0.77;;;0.77;;
16832;SDS011;8533;48.426;10.868;2023-11-19T12:42:49;0.53;;;0.53;;
16832;SDS011;8533;48.426;10.868;2023-11-19T12:45:16;0.70;;;0.70;;
16832;SDS011;8533;48.426;10.868;2023-11-19T12:47:42;0.67;;;0.53;;
16832;SDS011;8533;48.426;10.868;2023-11-19T12:50:08;0.53;;;0.53;;
16832;SDS011;8533;48.426;10.868;2023-11-19T12:52:35;2.53;;;0.70;;
16832;SDS011;8533;48.426;10.868;2023-11-19T12:55:03;0.60;;;0.60;;
16832;SDS011;8533;48.426;10.868;2023-11-19T12:57:41;0.70;;;0.70;;
16832;SDS011;8533;48.426;10.868;2023-11-19T13:00:07;1.87;;;0.90;;
16832;SDS011;8533;48.426;10.868;2023-11-19T13:02:55;0.70;;;0.70;;
16832;SDS011;8533;48.426;10.868;2023-11-19T13:08:07;0.70;;;0.70;;
16832;SDS011;8533;48.426;10.868;2023-11-19T13:10:54;0.60;;;0.60;;
16832;SDS011;8533;48.426;10.868;2023-11-19T13:13:19;0.77;;;0.77;;
16832;SDS011;8533;48.426;10.868;2023-11-19T13:15:44;0.53;;;0.53;;
16832;SDS011;8533;48.426;10.868;2023-11-19T13:18:11;1.90;;;1.00;;
16832;SDS011;8533;48.426;10.868;2023-11-19T13:20:36;0.93;;;0.90;;
16832;SDS011;8533;48.426;10.868;2023-11-19T13:23:02;1.97;;;0.80;;
16832;SDS011;8533;48.426;10.868;2023-11-19T13:25:29;0.87;;;0.87;;
16832;SDS011;8533;48.426;10.868;2023-11-19T13:27:55;0.40;;;0.40;;
16832;SDS011;8533;48.426;10.868;2023-11-19T13:30:22;0.73;;;0.70;;
16832;SDS011;8533;48.426;10.868;2023-11-19T13:32:48;1.03;;;0.60;;
16832;SDS011;8533;48.426;10.868;2023-11-19T13:35:14;0.63;;;0.63;;
16832;SDS011;8533;48.426;10.868;2023-11-19T13:37:42;0.80;;;0.80;;
16832;SDS011;8533;48.426;10.868;2023-11-19T13:40:08;0.80;;;0.80;;
16832;SDS011;8533;48.426;10.868;2023-11-19T13:42:35;0.60;;;0.60;;
16832;SDS011;8533;48.426;10.868;2023-11-19T13:45:05;0.57;;;0.57;;
16832;SDS011;8533;48.426;10.868;2023-11-19T13:47:35;0.87;;;0.80;;
16832;SDS011;8533;48.426;10.868;2023-11-19T13:50:01;1.10;;;1.00;;
16832;SDS011;8533;48.426;10.868;2023-11-19T13:52:26;0.50;;;0.50;;
16832;SDS011;8533;48.426;10.868;2023-11-19T13:54:52;2.10;;;0.60;;
16832;SDS011;8533;48.426;10.868;2023-11-19T13:57:17;0.60;;;0.60;;
16832;SDS011;8533;48.426;10.868;2023-11-19T13:59:42;0.60;;;0.60;;
16832;SDS011;8533;48.426;10.868;2023-11-19T14:02:08;0.63;;;0.60;;
16832;SDS011;8533;48.426;10.868;2023-11-19T14:04:33;0.67;;;0.67;;
16832;SDS011;8533;48.426;10.868;2023-11-19T14:06:59;2.73;;;0.90;;
16832;SDS011;8533;48.426;10.868;2023-11-19T14:09:24;0.70;;;0.60;;
16832;SDS011;8533;48.426;10.868;2023-11-19T14:11:49;0.80;;;0.80;;
16832;SDS011;8533;48.426;10.868;2023-11-19T14:14:16;0.60;;;0.60;;
16832;SDS011;8533;48.426;10.868;2023-11-19T14:16:42;1.23;;;0.60;;
16832;SDS011;8533;48.426;10.868;2023-11-19T14:19:07;0.60;;;0.60;;
16832;SDS011;8533;48.426;10.868;2023-11-19T14:21:33;1.03;;;0.80;;
16832;SDS011;8533;48.426;10.868;2023-11-19T14:23:58;2.00;;;0.90;;
16832;SDS011;8533;48.426;10.868;2023-11-19T14:26:24;0.70;;;0.70;;
16832;SDS011;8533;48.426;10.868;2023-11-19T14:28:49;0.57;;;0.57;;
16832;SDS011;8533;48.426;10.868;2023-11-19T14:31:14;1.00;;;0.70;;
16832;SDS011;8533;48.426;10.868;2023-11-19T14:33:39;0.73;;;0.50;;
16832;SDS011;8533;48.426;10.868;2023-11-19T14:36:05;1.67;;;0.70;;
16832;SDS011;8533;48.426;10.868;2023-11-19T14:38:32;0.60;;;0.60;;
16832;SDS011;8533;48.426;10.868;2023-11-19T14:40:57;0.93;;;0.63;;
16832;SDS011;8533;48.426;10.868;2023-11-19T14:43:24;0.50;;;0.50;;
16832;SDS011;8533;48.426;10.868;2023-11-19T14:45:49;0.50;;;0.50;;
16832;SDS011;8533;48.426;10.868;2023-11-19T14:48:15;0.60;;;0.60;;
16832;SDS011;8533;48.426;10.868;2023-11-19T14:50:42;0.50;;;0.50;;
16832;SDS011;8533;48.426;10.868;2023-11-19T14:53:09;0.77;;;0.60;;
16832;SDS011;8533;48.426;10.868;2023-11-19T14:55:35;1.20;;;0.43;;
16832;SDS011;8533;48.426;10.868;2023-11-19T14:58:00;0.60;;;0.60;;
16832;SDS011;8533;48.426;10.868;2023-11-19T15:00:26;0.50;;;0.50;;
16832;SDS011;8533;48.426;10.868;2023-11-19T15:02:51;1.60;;;0.70;;
16832;SDS011;8533;48.426;10.868;2023-11-19T15:05:16;0.80;;;0.60;;
16832;SDS011;8533;48.426;10.868;2023-11-19T15:07:41;2.00;;;0.80;;
16832;SDS011;8533;48.426;10.868;2023-11-19T15:10:07;1.80;;;0.60;;
16832;SDS011;8533;48.426;10.868;2023-11-19T15:12:35;0.43;;;0.43;;